sensor_id;sensor_type;location;lat;lon;timestamp;P1;durP1;ratioP1;P2;durP2;ratioP2
21630;SDS011;10977;46.802;11.952;2022-11-20T00:01:41;8.02;;;5.55;;
21630;SDS011;10977;46.802;11.952;2022-11-20T00:04:07;8.00;;;5.82;;
21630;SDS011;10977;46.802;11.952;2022-11-20T00:06:33;13.10;;;8.98;;
21630;SDS011;10977;46.802;11.952;2022-11-20T00:08:59;15.18;;;7.40;;
21630;SDS011;10977;46.802;11.952;2022-11-20T00:11:27;12.20;;;6.25;;
21630;SDS011;10977;46.802;11.952;2022-11-20T00:13:55;12.27;;;7.75;;
21630;SDS011;10977;46.802;11.952;2022-11-20T00:16:25;12.95;;;7.53;;
21630;SDS011;10977;46.802;11.952;2022-11-20T00:18:52;10.90;;;7.43;;
21630;SDS011;10977;46.802;11.952;2022-11-20T00:21:19;12.57;;;7.63;;
21630;SDS011;10977;46.802;11.952;2022-11-20T00:23:49;10.95;;;6.93;;
21630;SDS011;10977;46.802;11.952;2022-11-20T00:26:16;11.10;;;6.28;;
21630;SDS011;10977;46.802;11.952;2022-11-20T00:28:43;8.90;;;5.78;;
21630;SDS011;10977;46.802;11.952;2022-11-20T00:31:14;8.63;;;5.60;;
21630;SDS011;10977;46.802;11.952;2022-11-20T00:33:41;7.68;;;5.18;;
21630;SDS011;10977;46.802;11.952;2022-11-20T00:36:08;8.68;;;5.03;;
21630;SDS011;10977;46.802;11.952;2022-11-20T00:38:36;6.60;;;4.72;;
21630;SDS011;10977;46.802;11.952;2022-11-20T00:41:03;7.03;;;4.95;;
21630;SDS011;10977;46.802;11.952;2022-11-20T00:43:31;8.73;;;5.35;;
21630;SDS011;10977;46.802;11.952;2022-11-20T00:46:00;8.88;;;5.88;;
21630;SDS011;10977;46.802;11.952;2022-11-20T00:48:27;12.27;;;7.45;;
21630;SDS011;10977;46.802;11.952;2022-11-20T00:50:53;10.38;;;6.30;;
21630;SDS011;10977;46.802;11.952;2022-11-20T00:53:19;8.95;;;6.50;;
21630;SDS011;10977;46.802;11.952;2022-11-20T00:56:01;7.70;;;6.18;;
21630;SDS011;10977;46.802;11.952;2022-11-20T00:58:32;9.60;;;6.38;;
21630;SDS011;10977;46.802;11.952;2022-11-20T01:01:03;10.18;;;6.22;;
21630;SDS011;10977;46.802;11.952;2022-11-20T01:03:33;10.95;;;6.40;;
21630;SDS011;10977;46.802;11.952;2022-11-20T01:06:07;10.52;;;6.13;;
21630;SDS011;10977;46.802;11.952;2022-11-20T01:08:40;7.32;;;5.28;;
21630;SDS011;10977;46.802;11.952;2022-11-20T01:11:06;6.18;;;4.97;;
21630;SDS011;10977;46.802;11.952;2022-11-20T01:13:37;6.63;;;4.60;;
21630;SDS011;10977;46.802;11.952;2022-11-20T01:18:33;8.40;;;5.20;;
21630;SDS011;10977;46.802;11.952;2022-11-20T01:21:00;8.93;;;5.70;;
21630;SDS011;10977;46.802;11.952;2022-11-20T01:23:32;8.68;;;5.18;;
21630;SDS011;10977;46.802;11.952;2022-11-20T01:26:00;6.97;;;4.82;;
21630;SDS011;10977;46.802;11.952;2022-11-20T01:28:28;10.15;;;6.18;;
21630;SDS011;10977;46.802;11.952;2022-11-20T01:30:53;9.00;;;5.72;;
21630;SDS011;10977;46.802;11.952;2022-11-20T01:33:19;13.23;;;6.25;;
21630;SDS011;10977;46.802;11.952;2022-11-20T01:35:44;8.95;;;5.97;;
21630;SDS011;10977;46.802;11.952;2022-11-20T01:38:10;10.68;;;6.25;;
21630;SDS011;10977;46.802;11.952;2022-11-20T01:40:35;11.70;;;6.15;;
21630;SDS011;10977;46.802;11.952;2022-11-20T01:43:06;8.57;;;6.15;;
21630;SDS011;10977;46.802;11.952;2022-11-20T01:48:21;8.73;;;5.60;;
21630;SDS011;10977;46.802;11.952;2022-11-20T01:50:49;8.90;;;5.65;;
21630;SDS011;10977;46.802;11.952;2022-11-20T01:53:17;9.77;;;6.50;;
21630;SDS011;10977;46.802;11.952;2022-11-20T01:55:47;9.80;;;6.40;;
21630;SDS011;10977;46.802;11.952;2022-11-20T01:58:18;9.32;;;5.85;;
21630;SDS011;10977;46.802;11.952;2022-11-20T02:00:46;11.00;;;6.88;;
21630;SDS011;10977;46.802;11.952;2022-11-20T02:03:12;11.05;;;5.68;;
21630;SDS011;10977;46.802;11.952;2022-11-20T02:08:43;9.38;;;5.32;;
21630;SDS011;10977;46.802;11.952;2022-11-20T02:11:09;7.55;;;4.70;;
21630;SDS011;10977;46.802;11.952;2022-11-20T02:13:34;9.88;;;5.72;;
21630;SDS011;10977;46.802;11.952;2022-11-20T02:16:10;9.20;;;6.00;;
21630;SDS011;10977;46.802;11.952;2022-11-20T02:18:39;8.70;;;5.97;;
21630;SDS011;10977;46.802;11.952;2022-11-20T02:21:12;11.55;;;5.63;;
21630;SDS011;10977;46.802;11.952;2022-11-20T02:26:30;8.18;;;5.50;;
21630;SDS011;10977;46.802;11.952;2022-11-20T02:29:00;9.00;;;6.07;;
21630;SDS011;10977;46.802;11.952;2022-11-20T02:31:27;9.73;;;5.20;;
21630;SDS011;10977;46.802;11.952;2022-11-20T02:33:55;10.20;;;6.03;;
21630;SDS011;10977;46.802;11.952;2022-11-20T02:36:24;7.97;;;5.63;;
21630;SDS011;10977;46.802;11.952;2022-11-20T02:38:52;12.23;;;5.50;;
21630;SDS011;10977;46.802;11.952;2022-11-20T02:41:19;7.05;;;4.43;;
21630;SDS011;10977;46.802;11.952;2022-11-20T02:43:47;6.07;;;3.67;;
21630;SDS011;10977;46.802;11.952;2022-11-20T02:46:13;6.22;;;3.90;;
21630;SDS011;10977;46.802;11.952;2022-11-20T02:48:39;6.55;;;4.63;;
21630;SDS011;10977;46.802;11.952;2022-11-20T02:51:05;7.45;;;4.93;;
21630;SDS011;10977;46.802;11.952;2022-11-20T02:53:30;6.65;;;4.13;;
21630;SDS011;10977;46.802;11.952;2022-11-20T02:55:55;7.45;;;4.85;;
21630;SDS011;10977;46.802;11.952;2022-11-20T02:58:21;7.07;;;4.55;;
21630;SDS011;10977;46.802;11.952;2022-11-20T03:00:46;5.75;;;4.13;;
21630;SDS011;10977;46.802;11.952;2022-11-20T03:03:11;5.40;;;3.70;;
21630;SDS011;10977;46.802;11.952;2022-11-20T03:05:37;5.78;;;4.13;;
21630;SDS011;10977;46.802;11.952;2022-11-20T03:08:02;6.78;;;4.35;;
21630;SDS011;10977;46.802;11.952;2022-11-20T03:10:28;7.10;;;4.75;;
21630;SDS011;10977;46.802;11.952;2022-11-20T03:12:53;7.03;;;4.63;;
21630;SDS011;10977;46.802;11.952;2022-11-20T03:15:20;7.03;;;4.40;;
21630;SDS011;10977;46.802;11.952;2022-11-20T03:17:46;8.35;;;5.00;;
21630;SDS011;10977;46.802;11.952;2022-11-20T03:20:11;6.68;;;4.82;;
21630;SDS011;10977;46.802;11.952;2022-11-20T03:22:37;7.05;;;5.10;;
21630;SDS011;10977;46.802;11.952;2022-11-20T03:25:02;6.65;;;4.90;;
21630;SDS011;10977;46.802;11.952;2022-11-20T03:27:31;8.55;;;4.35;;
21630;SDS011;10977;46.802;11.952;2022-11-20T03:29:57;6.47;;;4.07;;
21630;SDS011;10977;46.802;11.952;2022-11-20T03:32:23;5.45;;;4.32;;
21630;SDS011;10977;46.802;11.952;2022-11-20T03:34:48;7.63;;;3.80;;
21630;SDS011;10977;46.802;11.952;2022-11-20T03:37:13;6.95;;;4.00;;
21630;SDS011;10977;46.802;11.952;2022-11-20T03:39:38;5.85;;;4.13;;
21630;SDS011;10977;46.802;11.952;2022-11-20T03:42:04;5.68;;;4.20;;
21630;SDS011;10977;46.802;11.952;2022-11-20T03:44:49;7.65;;;4.28;;
21630;SDS011;10977;46.802;11.952;2022-11-20T03:47:14;7.05;;;3.38;;
21630;SDS011;10977;46.802;11.952;2022-11-20T03:49:40;7.75;;;3.15;;
21630;SDS011;10977;46.802;11.952;2022-11-20T03:52:05;6.22;;;3.70;;
21630;SDS011;10977;46.802;11.952;2022-11-20T03:54:31;5.20;;;3.05;;
21630;SDS011;10977;46.802;11.952;2022-11-20T03:56:56;4.47;;;3.05;;
21630;SDS011;10977;46.802;11.952;2022-11-20T03:59:21;5.13;;;3.42;;
21630;SDS011;10977;46.802;11.952;2022-11-20T04:01:47;4.05;;;3.25;;
21630;SDS011;10977;46.802;11.952;2022-11-20T04:04:12;5.60;;;3.22;;
21630;SDS011;10977;46.802;11.952;2022-11-20T04:06:37;5.38;;;3.55;;
21630;SDS011;10977;46.802;11.952;2022-11-20T04:09:03;5.57;;;3.35;;
21630;SDS011;10977;46.802;11.952;2022-11-20T04:11:30;6.43;;;4.30;;
21630;SDS011;10977;46.802;11.952;2022-11-20T04:13:58;6.50;;;4.40;;
21630;SDS011;10977;46.802;11.952;2022-11-20T04:16:26;7.05;;;3.60;;
21630;SDS011;10977;46.802;11.952;2022-11-20T04:18:55;5.18;;;3.63;;
21630;SDS011;10977;46.802;11.952;2022-11-20T04:21:22;5.47;;;3.80;;
21630;SDS011;10977;46.802;11.952;2022-11-20T04:23:49;8.93;;;4.32;;
21630;SDS011;10977;46.802;11.952;2022-11-20T04:26:14;6.43;;;4.32;;
21630;SDS011;10977;46.802;11.952;2022-11-20T04:28:40;6.45;;;3.85;;
21630;SDS011;10977;46.802;11.952;2022-11-20T04:31:10;5.82;;;3.65;;
21630;SDS011;10977;46.802;11.952;2022-11-20T04:33:37;5.88;;;3.63;;
21630;SDS011;10977;46.802;11.952;2022-11-20T04:36:05;5.00;;;2.97;;
21630;SDS011;10977;46.802;11.952;2022-11-20T04:38:34;6.00;;;3.10;;
21630;SDS011;10977;46.802;11.952;2022-11-20T04:41:00;5.10;;;3.10;;
21630;SDS011;10977;46.802;11.952;2022-11-20T04:43:26;5.60;;;3.88;;
21630;SDS011;10977;46.802;11.952;2022-11-20T04:45:52;5.95;;;4.00;;
21630;SDS011;10977;46.802;11.952;2022-11-20T04:48:19;6.22;;;4.15;;
21630;SDS011;10977;46.802;11.952;2022-11-20T04:50:44;5.50;;;3.80;;
21630;SDS011;10977;46.802;11.952;2022-11-20T04:53:10;6.78;;;3.92;;
21630;SDS011;10977;46.802;11.952;2022-11-20T04:55:35;5.95;;;3.92;;
21630;SDS011;10977;46.802;11.952;2022-11-20T04:58:00;7.68;;;4.13;;
21630;SDS011;10977;46.802;11.952;2022-11-20T05:00:26;7.53;;;4.70;;
21630;SDS011;10977;46.802;11.952;2022-11-20T05:02:51;10.30;;;6.55;;
21630;SDS011;10977;46.802;11.952;2022-11-20T05:05:16;7.10;;;4.47;;
21630;SDS011;10977;46.802;11.952;2022-11-20T05:07:42;5.47;;;3.58;;
21630;SDS011;10977;46.802;11.952;2022-11-20T05:10:07;5.10;;;3.50;;
21630;SDS011;10977;46.802;11.952;2022-11-20T05:12:33;4.15;;;3.00;;
21630;SDS011;10977;46.802;11.952;2022-11-20T05:14:58;6.15;;;3.40;;
21630;SDS011;10977;46.802;11.952;2022-11-20T05:17:24;6.57;;;4.00;;
21630;SDS011;10977;46.802;11.952;2022-11-20T05:19:49;5.82;;;3.67;;
21630;SDS011;10977;46.802;11.952;2022-11-20T05:22:14;7.72;;;3.88;;
21630;SDS011;10977;46.802;11.952;2022-11-20T05:24:40;6.97;;;3.75;;
21630;SDS011;10977;46.802;11.952;2022-11-20T05:27:05;7.18;;;3.63;;
21630;SDS011;10977;46.802;11.952;2022-11-20T05:29:32;5.35;;;3.58;;
21630;SDS011;10977;46.802;11.952;2022-11-20T05:31:57;6.15;;;3.13;;
21630;SDS011;10977;46.802;11.952;2022-11-20T05:34:22;6.55;;;3.67;;
21630;SDS011;10977;46.802;11.952;2022-11-20T05:36:48;6.18;;;3.53;;
21630;SDS011;10977;46.802;11.952;2022-11-20T05:39:13;4.00;;;3.20;;
21630;SDS011;10977;46.802;11.952;2022-11-20T05:41:38;4.25;;;3.00;;
21630;SDS011;10977;46.802;11.952;2022-11-20T05:44:04;3.10;;;2.42;;
21630;SDS011;10977;46.802;11.952;2022-11-20T05:46:29;4.55;;;2.80;;
21630;SDS011;10977;46.802;11.952;2022-11-20T05:48:55;4.32;;;3.22;;
21630;SDS011;10977;46.802;11.952;2022-11-20T05:51:22;7.55;;;3.70;;
21630;SDS011;10977;46.802;11.952;2022-11-20T05:53:48;6.63;;;4.55;;
21630;SDS011;10977;46.802;11.952;2022-11-20T05:56:14;7.45;;;4.75;;
21630;SDS011;10977;46.802;11.952;2022-11-20T05:58:42;5.00;;;4.00;;
21630;SDS011;10977;46.802;11.952;2022-11-20T06:03:34;7.30;;;3.92;;
21630;SDS011;10977;46.802;11.952;2022-11-20T06:06:00;4.20;;;3.42;;
21630;SDS011;10977;46.802;11.952;2022-11-20T06:08:26;9.50;;;4.22;;
21630;SDS011;10977;46.802;11.952;2022-11-20T06:10:52;63.25;;;34.33;;
21630;SDS011;10977;46.802;11.952;2022-11-20T06:13:17;165.27;;;86.07;;
21630;SDS011;10977;46.802;11.952;2022-11-20T06:15:48;103.82;;;56.08;;
21630;SDS011;10977;46.802;11.952;2022-11-20T06:18:19;28.45;;;15.45;;
21630;SDS011;10977;46.802;11.952;2022-11-20T06:20:45;21.48;;;12.85;;
21630;SDS011;10977;46.802;11.952;2022-11-20T06:23:11;19.30;;;11.57;;
21630;SDS011;10977;46.802;11.952;2022-11-20T06:25:41;13.57;;;8.27;;
21630;SDS011;10977;46.802;11.952;2022-11-20T06:28:08;11.48;;;7.30;;
21630;SDS011;10977;46.802;11.952;2022-11-20T06:30:34;11.18;;;6.88;;
21630;SDS011;10977;46.802;11.952;2022-11-20T06:33:00;7.85;;;5.20;;
21630;SDS011;10977;46.802;11.952;2022-11-20T06:35:25;10.27;;;5.47;;
21630;SDS011;10977;46.802;11.952;2022-11-20T06:37:51;7.40;;;4.95;;
21630;SDS011;10977;46.802;11.952;2022-11-20T06:40:16;9.07;;;5.10;;
21630;SDS011;10977;46.802;11.952;2022-11-20T06:42:42;7.80;;;5.50;;
21630;SDS011;10977;46.802;11.952;2022-11-20T06:45:07;13.65;;;7.95;;
21630;SDS011;10977;46.802;11.952;2022-11-20T06:47:33;12.85;;;8.32;;
21630;SDS011;10977;46.802;11.952;2022-11-20T06:49:59;13.45;;;8.98;;
21630;SDS011;10977;46.802;11.952;2022-11-20T06:52:26;18.40;;;11.02;;
21630;SDS011;10977;46.802;11.952;2022-11-20T06:54:51;17.33;;;11.70;;
21630;SDS011;10977;46.802;11.952;2022-11-20T06:57:16;18.08;;;11.05;;
21630;SDS011;10977;46.802;11.952;2022-11-20T06:59:42;21.48;;;12.32;;
21630;SDS011;10977;46.802;11.952;2022-11-20T07:02:10;18.13;;;10.50;;
21630;SDS011;10977;46.802;11.952;2022-11-20T07:04:37;17.63;;;11.18;;
21630;SDS011;10977;46.802;11.952;2022-11-20T07:07:02;21.65;;;12.30;;
21630;SDS011;10977;46.802;11.952;2022-11-20T07:09:28;19.08;;;11.05;;
21630;SDS011;10977;46.802;11.952;2022-11-20T07:11:53;16.77;;;10.35;;
21630;SDS011;10977;46.802;11.952;2022-11-20T07:14:18;13.75;;;9.68;;
21630;SDS011;10977;46.802;11.952;2022-11-20T07:16:44;18.20;;;12.27;;
21630;SDS011;10977;46.802;11.952;2022-11-20T07:19:09;10.18;;;7.05;;
21630;SDS011;10977;46.802;11.952;2022-11-20T07:21:35;8.20;;;5.97;;
21630;SDS011;10977;46.802;11.952;2022-11-20T07:24:00;9.02;;;5.82;;
21630;SDS011;10977;46.802;11.952;2022-11-20T07:26:25;9.00;;;5.97;;
21630;SDS011;10977;46.802;11.952;2022-11-20T07:28:51;9.18;;;5.93;;
21630;SDS011;10977;46.802;11.952;2022-11-20T07:31:16;12.68;;;7.95;;
21630;SDS011;10977;46.802;11.952;2022-11-20T07:33:41;15.00;;;9.80;;
21630;SDS011;10977;46.802;11.952;2022-11-20T07:36:08;15.25;;;10.45;;
21630;SDS011;10977;46.802;11.952;2022-11-20T07:38:34;16.35;;;10.55;;
21630;SDS011;10977;46.802;11.952;2022-11-20T07:40:59;15.02;;;10.48;;
21630;SDS011;10977;46.802;11.952;2022-11-20T07:43:28;15.15;;;10.48;;
21630;SDS011;10977;46.802;11.952;2022-11-20T07:45:57;14.75;;;10.25;;
21630;SDS011;10977;46.802;11.952;2022-11-20T07:48:23;14.00;;;9.07;;
21630;SDS011;10977;46.802;11.952;2022-11-20T07:50:52;18.35;;;11.50;;
21630;SDS011;10977;46.802;11.952;2022-11-20T07:53:18;21.63;;;12.50;;
21630;SDS011;10977;46.802;11.952;2022-11-20T07:55:45;17.90;;;11.32;;
21630;SDS011;10977;46.802;11.952;2022-11-20T07:58:11;18.30;;;11.60;;
21630;SDS011;10977;46.802;11.952;2022-11-20T08:00:36;19.92;;;12.85;;
21630;SDS011;10977;46.802;11.952;2022-11-20T08:03:04;31.13;;;18.02;;
21630;SDS011;10977;46.802;11.952;2022-11-20T08:05:30;16.30;;;9.13;;
21630;SDS011;10977;46.802;11.952;2022-11-20T08:07:56;18.00;;;11.07;;
21630;SDS011;10977;46.802;11.952;2022-11-20T08:10:21;23.75;;;15.52;;
21630;SDS011;10977;46.802;11.952;2022-11-20T08:12:47;24.20;;;14.60;;
21630;SDS011;10977;46.802;11.952;2022-11-20T08:15:33;25.55;;;14.55;;
21630;SDS011;10977;46.802;11.952;2022-11-20T08:18:06;20.88;;;12.73;;
21630;SDS011;10977;46.802;11.952;2022-11-20T08:20:36;39.63;;;21.27;;
21630;SDS011;10977;46.802;11.952;2022-11-20T08:23:02;26.42;;;15.80;;
21630;SDS011;10977;46.802;11.952;2022-11-20T08:25:33;23.88;;;15.18;;
21630;SDS011;10977;46.802;11.952;2022-11-20T08:28:00;21.08;;;12.77;;
21630;SDS011;10977;46.802;11.952;2022-11-20T08:30:27;16.05;;;10.57;;
21630;SDS011;10977;46.802;11.952;2022-11-20T08:32:53;22.92;;;12.93;;
21630;SDS011;10977;46.802;11.952;2022-11-20T08:35:19;19.00;;;12.15;;
21630;SDS011;10977;46.802;11.952;2022-11-20T08:37:47;14.35;;;9.05;;
21630;SDS011;10977;46.802;11.952;2022-11-20T08:40:13;10.30;;;7.47;;
21630;SDS011;10977;46.802;11.952;2022-11-20T08:42:46;8.43;;;5.50;;
21630;SDS011;10977;46.802;11.952;2022-11-20T08:45:12;7.30;;;4.15;;
21630;SDS011;10977;46.802;11.952;2022-11-20T08:47:38;8.55;;;4.75;;
21630;SDS011;10977;46.802;11.952;2022-11-20T08:50:03;9.77;;;6.13;;
21630;SDS011;10977;46.802;11.952;2022-11-20T08:52:29;13.27;;;8.18;;
21630;SDS011;10977;46.802;11.952;2022-11-20T08:54:54;8.57;;;5.28;;
21630;SDS011;10977;46.802;11.952;2022-11-20T08:57:19;9.05;;;4.72;;
21630;SDS011;10977;46.802;11.952;2022-11-20T08:59:45;8.77;;;4.78;;
21630;SDS011;10977;46.802;11.952;2022-11-20T09:02:10;6.75;;;4.30;;
21630;SDS011;10977;46.802;11.952;2022-11-20T09:04:36;8.75;;;4.80;;
21630;SDS011;10977;46.802;11.952;2022-11-20T09:07:03;8.75;;;4.20;;
21630;SDS011;10977;46.802;11.952;2022-11-20T09:09:29;6.85;;;4.18;;
21630;SDS011;10977;46.802;11.952;2022-11-20T09:11:54;7.10;;;4.13;;
21630;SDS011;10977;46.802;11.952;2022-11-20T09:14:19;5.00;;;3.70;;
21630;SDS011;10977;46.802;11.952;2022-11-20T09:16:46;5.57;;;3.50;;
21630;SDS011;10977;46.802;11.952;2022-11-20T09:19:11;7.40;;;3.45;;
21630;SDS011;10977;46.802;11.952;2022-11-20T09:21:37;4.72;;;3.67;;
21630;SDS011;10977;46.802;11.952;2022-11-20T09:24:02;6.20;;;3.85;;
21630;SDS011;10977;46.802;11.952;2022-11-20T09:26:28;7.28;;;3.55;;
21630;SDS011;10977;46.802;11.952;2022-11-20T09:28:53;5.47;;;4.20;;
21630;SDS011;10977;46.802;11.952;2022-11-20T09:31:24;8.05;;;3.80;;
21630;SDS011;10977;46.802;11.952;2022-11-20T09:33:51;3.63;;;2.95;;
21630;SDS011;10977;46.802;11.952;2022-11-20T09:36:17;5.45;;;3.00;;
21630;SDS011;10977;46.802;11.952;2022-11-20T09:38:46;2.92;;;2.58;;
21630;SDS011;10977;46.802;11.952;2022-11-20T09:41:24;4.28;;;2.50;;
21630;SDS011;10977;46.802;11.952;2022-11-20T09:43:58;2.85;;;2.40;;
21630;SDS011;10977;46.802;11.952;2022-11-20T09:49:27;1.95;;;1.73;;
21630;SDS011;10977;46.802;11.952;2022-11-20T09:54:45;2.25;;;1.60;;
21630;SDS011;10977;46.802;11.952;2022-11-20T09:57:12;2.83;;;1.80;;
21630;SDS011;10977;46.802;11.952;2022-11-20T09:59:44;1.98;;;1.77;;
21630;SDS011;10977;46.802;11.952;2022-11-20T10:04:53;1.55;;;1.42;;
21630;SDS011;10977;46.802;11.952;2022-11-20T10:07:26;2.67;;;1.98;;
21630;SDS011;10977;46.802;11.952;2022-11-20T10:13:33;3.15;;;2.10;;
21630;SDS011;10977;46.802;11.952;2022-11-20T10:30:35;3.55;;;1.75;;
21630;SDS011;10977;46.802;11.952;2022-11-20T10:33:08;2.78;;;2.25;;
21630;SDS011;10977;46.802;11.952;2022-11-20T10:38:07;2.53;;;2.33;;
21630;SDS011;10977;46.802;11.952;2022-11-20T10:40:41;2.67;;;2.42;;
21630;SDS011;10977;46.802;11.952;2022-11-20T10:43:28;2.10;;;1.90;;
21630;SDS011;10977;46.802;11.952;2022-11-20T10:45:58;3.00;;;2.70;;
21630;SDS011;10977;46.802;11.952;2022-11-20T10:48:28;2.85;;;2.65;;
21630;SDS011;10977;46.802;11.952;2022-11-20T10:51:11;3.38;;;2.97;;
21630;SDS011;10977;46.802;11.952;2022-11-20T10:53:54;3.30;;;3.00;;
21630;SDS011;10977;46.802;11.952;2022-11-20T11:01:55;4.60;;;3.25;;
21630;SDS011;10977;46.802;11.952;2022-11-20T11:05:07;3.83;;;3.15;;
21630;SDS011;10977;46.802;11.952;2022-11-20T11:09:58;2.83;;;2.58;;
21630;SDS011;10977;46.802;11.952;2022-11-20T11:12:25;2.92;;;2.60;;
21630;SDS011;10977;46.802;11.952;2022-11-20T11:14:53;3.00;;;2.70;;
21630;SDS011;10977;46.802;11.952;2022-11-20T11:17:32;2.75;;;2.55;;
21630;SDS011;10977;46.802;11.952;2022-11-20T11:20:00;2.83;;;2.63;;
21630;SDS011;10977;46.802;11.952;2022-11-20T11:22:52;3.30;;;3.00;;
21630;SDS011;10977;46.802;11.952;2022-11-20T11:27:48;5.65;;;3.45;;
21630;SDS011;10977;46.802;11.952;2022-11-20T11:30:16;5.70;;;3.05;;
21630;SDS011;10977;46.802;11.952;2022-11-20T11:32:43;3.78;;;3.10;;
21630;SDS011;10977;46.802;11.952;2022-11-20T11:35:27;3.00;;;2.70;;
21630;SDS011;10977;46.802;11.952;2022-11-20T11:37:54;2.70;;;2.50;;
21630;SDS011;10977;46.802;11.952;2022-11-20T11:40:27;3.00;;;2.70;;
21630;SDS011;10977;46.802;11.952;2022-11-20T11:42:59;3.40;;;2.70;;
21630;SDS011;10977;46.802;11.952;2022-11-20T11:45:29;3.10;;;2.63;;
21630;SDS011;10977;46.802;11.952;2022-11-20T11:47:56;2.92;;;2.35;;
21630;SDS011;10977;46.802;11.952;2022-11-20T11:50:26;3.83;;;2.92;;
21630;SDS011;10977;46.802;11.952;2022-11-20T11:55:43;3.53;;;3.15;;
21630;SDS011;10977;46.802;11.952;2022-11-20T12:03:52;2.58;;;1.90;;
21630;SDS011;10977;46.802;11.952;2022-11-20T12:06:26;2.25;;;2.05;;
21630;SDS011;10977;46.802;11.952;2022-11-20T12:08:58;4.25;;;2.83;;
21630;SDS011;10977;46.802;11.952;2022-11-20T12:11:30;2.72;;;2.53;;
21630;SDS011;10977;46.802;11.952;2022-11-20T12:14:20;4.75;;;2.42;;
21630;SDS011;10977;46.802;11.952;2022-11-20T12:16:49;6.10;;;3.75;;
21630;SDS011;10977;46.802;11.952;2022-11-20T12:19:15;3.58;;;2.97;;
21630;SDS011;10977;46.802;11.952;2022-11-20T12:24:42;2.55;;;2.35;;
21630;SDS011;10977;46.802;11.952;2022-11-20T12:32:52;2.78;;;1.88;;
21630;SDS011;10977;46.802;11.952;2022-11-20T12:35:35;2.92;;;1.90;;
21630;SDS011;10977;46.802;11.952;2022-11-20T12:52:57;1.98;;;1.80;;
21630;SDS011;10977;46.802;11.952;2022-11-20T12:55:46;2.92;;;2.03;;
21630;SDS011;10977;46.802;11.952;2022-11-20T12:58:48;2.05;;;1.85;;
21630;SDS011;10977;46.802;11.952;2022-11-20T13:06:56;3.47;;;1.45;;
21630;SDS011;10977;46.802;11.952;2022-11-20T13:09:23;1.35;;;1.25;;
21630;SDS011;10977;46.802;11.952;2022-11-20T13:17:54;1.50;;;1.40;;
21630;SDS011;10977;46.802;11.952;2022-11-20T13:20:22;1.60;;;1.40;;
21630;SDS011;10977;46.802;11.952;2022-11-20T13:22:52;1.55;;;1.45;;
21630;SDS011;10977;46.802;11.952;2022-11-20T13:25:25;1.60;;;1.50;;
21630;SDS011;10977;46.802;11.952;2022-11-20T13:27:53;1.90;;;1.50;;
21630;SDS011;10977;46.802;11.952;2022-11-20T13:30:20;1.20;;;1.10;;
21630;SDS011;10977;46.802;11.952;2022-11-20T13:38:11;1.60;;;1.50;;
21630;SDS011;10977;46.802;11.952;2022-11-20T13:40:50;2.00;;;1.30;;
21630;SDS011;10977;46.802;11.952;2022-11-20T13:43:22;2.53;;;1.60;;
21630;SDS011;10977;46.802;11.952;2022-11-20T13:46:01;2.42;;;1.95;;
21630;SDS011;10977;46.802;11.952;2022-11-20T13:48:30;3.53;;;2.15;;
21630;SDS011;10977;46.802;11.952;2022-11-20T13:51:06;2.70;;;1.98;;
21630;SDS011;10977;46.802;11.952;2022-11-20T13:56:14;2.67;;;2.38;;
21630;SDS011;10977;46.802;11.952;2022-11-20T13:58:51;4.22;;;3.17;;
21630;SDS011;10977;46.802;11.952;2022-11-20T14:01:21;3.22;;;2.88;;
21630;SDS011;10977;46.802;11.952;2022-11-20T14:03:49;3.10;;;2.63;;
21630;SDS011;10977;46.802;11.952;2022-11-20T14:06:26;3.72;;;2.63;;
21630;SDS011;10977;46.802;11.952;2022-11-20T14:08:54;2.58;;;2.33;;
21630;SDS011;10977;46.802;11.952;2022-11-20T14:11:21;2.28;;;2.08;;
21630;SDS011;10977;46.802;11.952;2022-11-20T14:14:10;2.20;;;2.00;;
21630;SDS011;10977;46.802;11.952;2022-11-20T14:16:40;2.60;;;2.22;;
21630;SDS011;10977;46.802;11.952;2022-11-20T14:19:22;2.47;;;2.00;;
21630;SDS011;10977;46.802;11.952;2022-11-20T14:21:54;2.00;;;1.80;;
21630;SDS011;10977;46.802;11.952;2022-11-20T14:24:32;3.20;;;2.15;;
21630;SDS011;10977;46.802;11.952;2022-11-20T14:26:58;2.05;;;1.70;;
21630;SDS011;10977;46.802;11.952;2022-11-20T14:29:26;2.60;;;1.73;;
21630;SDS011;10977;46.802;11.952;2022-11-20T14:32:03;2.35;;;1.80;;
21630;SDS011;10977;46.802;11.952;2022-11-20T14:34:30;1.42;;;1.17;;
21630;SDS011;10977;46.802;11.952;2022-11-20T14:37:04;3.40;;;1.40;;
21630;SDS011;10977;46.802;11.952;2022-11-20T14:39:35;1.50;;;1.20;;
21630;SDS011;10977;46.802;11.952;2022-11-20T14:42:15;2.78;;;1.40;;
21630;SDS011;10977;46.802;11.952;2022-11-20T14:44:41;1.73;;;1.50;;
21630;SDS011;10977;46.802;11.952;2022-11-20T14:47:08;1.85;;;1.60;;
21630;SDS011;10977;46.802;11.952;2022-11-20T14:49:37;4.45;;;2.40;;
21630;SDS011;10977;46.802;11.952;2022-11-20T14:52:13;4.32;;;3.50;;
21630;SDS011;10977;46.802;11.952;2022-11-20T14:54:45;3.85;;;2.58;;
21630;SDS011;10977;46.802;11.952;2022-11-20T14:59:46;2.95;;;2.03;;
21630;SDS011;10977;46.802;11.952;2022-11-20T15:02:11;2.40;;;1.85;;
21630;SDS011;10977;46.802;11.952;2022-11-20T15:07:23;11.88;;;9.38;;
21630;SDS011;10977;46.802;11.952;2022-11-20T15:10:06;8.23;;;4.80;;
21630;SDS011;10977;46.802;11.952;2022-11-20T15:12:38;4.80;;;3.00;;
21630;SDS011;10977;46.802;11.952;2022-11-20T15:15:08;2.17;;;1.75;;
21630;SDS011;10977;46.802;11.952;2022-11-20T15:17:36;3.42;;;1.90;;
21630;SDS011;10977;46.802;11.952;2022-11-20T15:20:05;21.52;;;12.73;;
21630;SDS011;10977;46.802;11.952;2022-11-20T15:22:38;13.52;;;10.13;;
21630;SDS011;10977;46.802;11.952;2022-11-20T15:25:14;8.93;;;7.10;;
21630;SDS011;10977;46.802;11.952;2022-11-20T15:27:41;10.95;;;6.88;;
21630;SDS011;10977;46.802;11.952;2022-11-20T15:30:13;11.38;;;8.02;;
21630;SDS011;10977;46.802;11.952;2022-11-20T15:32:41;6.90;;;5.40;;
21630;SDS011;10977;46.802;11.952;2022-11-20T15:35:07;6.68;;;4.75;;
21630;SDS011;10977;46.802;11.952;2022-11-20T15:37:33;5.32;;;3.90;;
21630;SDS011;10977;46.802;11.952;2022-11-20T15:39:58;4.60;;;3.70;;
21630;SDS011;10977;46.802;11.952;2022-11-20T15:42:23;5.45;;;3.20;;
21630;SDS011;10977;46.802;11.952;2022-11-20T15:44:49;4.80;;;4.00;;
21630;SDS011;10977;46.802;11.952;2022-11-20T15:47:14;6.35;;;3.60;;
21630;SDS011;10977;46.802;11.952;2022-11-20T15:49:39;4.80;;;3.75;;
21630;SDS011;10977;46.802;11.952;2022-11-20T15:52:05;8.02;;;5.30;;
21630;SDS011;10977;46.802;11.952;2022-11-20T15:54:30;7.18;;;5.10;;
21630;SDS011;10977;46.802;11.952;2022-11-20T15:56:55;12.77;;;8.85;;
21630;SDS011;10977;46.802;11.952;2022-11-20T15:59:21;15.15;;;9.50;;
21630;SDS011;10977;46.802;11.952;2022-11-20T16:01:46;15.25;;;11.10;;
21630;SDS011;10977;46.802;11.952;2022-11-20T16:04:12;15.38;;;10.85;;
21630;SDS011;10977;46.802;11.952;2022-11-20T16:06:39;12.55;;;10.07;;
21630;SDS011;10977;46.802;11.952;2022-11-20T16:09:05;15.85;;;11.45;;
21630;SDS011;10977;46.802;11.952;2022-11-20T16:11:31;14.43;;;9.43;;
21630;SDS011;10977;46.802;11.952;2022-11-20T16:13:56;18.92;;;12.88;;
21630;SDS011;10977;46.802;11.952;2022-11-20T16:16:40;72.53;;;42.33;;
21630;SDS011;10977;46.802;11.952;2022-11-20T16:19:09;33.08;;;22.85;;
21630;SDS011;10977;46.802;11.952;2022-11-20T16:21:36;23.42;;;14.65;;
21630;SDS011;10977;46.802;11.952;2022-11-20T16:24:03;18.02;;;12.60;;
21630;SDS011;10977;46.802;11.952;2022-11-20T16:26:30;13.57;;;9.70;;